Annelisa — DUGT — position and weather

sailwx.info

Track history (hours):
 
Tides and Currents Weather Stations Pressure Air Temp Water Temp Dewpoint Dewpoint Depression Visibility Wind Speed Wind Dir Waves Ship Positions

Annelisa

Last reported at 2018-Apr-16 19:32 UTC. Time now 2018-Jun-20 07:20 UTC.
Position N 38°25' W 030°34'.
Warning: this ship's position is months out of date.

Length 138 m; draft 8.7 m.

Type: Other ship. MMSI: 548903000.

Date/timePositionNaut miles runAvg speedWind from/ knotsBaromVisibWave heightAir tempDewpointWater temp
2018-Apr-16 19:32N 38°25' W 030°34'2 7.2
2018-Apr-16 19:18N 38°26' W 030°32'2 7.1
2018-Apr-16 19:00N 38°27' W 030°30'3 6.8
2018-Apr-16 18:29N 38°28' W 030°26'5 6.6
2018-Apr-16 17:47N 38°31' W 030°21'3 6.7
2018-Apr-16 17:20N 38°32' W 030°17'2 6.9
2018-Apr-16 17:00N 38°33' W 030°15'5 6.0
2018-Apr-16 16:12N 38°36' W 030°09'1 5.5
2018-Apr-16 15:57N 38°36' W 030°08'2 5.0
2018-Apr-16 15:30N 38°37' W 030°05'3 5.5
2018-Apr-16 14:59N 38°39' W 030°02'3 6.0
2018-Apr-16 14:28N 38°40' W 029°59'3 5.6
2018-Apr-16 14:00N 38°42' W 029°56'3 5.6
2018-Apr-16 13:27N 38°43' W 029°52'2 5.4
2018-Apr-16 12:59N 38°44' W 029°50'3 5.4
2018-Apr-16 12:29N 38°46' W 029°47'2 5.1
2018-Apr-16 12:01N 38°47' W 029°44'3 5.3
2018-Apr-16 11:27N 38°49' W 029°41'2 5.3
2018-Apr-16 11:00N 38°50' W 029°38'4 5.3
2018-Apr-16 10:12N 38°52' W 029°34'7 5.8
2018-Apr-16 08:59N 38°56' W 029°26'7 6.3
2018-Apr-16 07:52N 38°60' W 029°18'3 6.5
2018-Apr-16 07:23N 39°01' W 029°15'5 5.9
2018-Apr-16 06:33N 39°03' W 029°09'1 5.9
2018-Apr-16 06:27N 39°04' W 029°08'6 5.3
2018-Apr-16 05:19N 39°06' W 029°01'2 5.2
2018-Apr-16 04:56N 39°07' W 028°59'2 4.9
2018-Apr-16 04:28N 39°08' W 028°57'4 5.0
2018-Apr-16 03:41N 39°10' W 028°52'6 5.0
2018-Apr-16 02:31N 39°13' W 028°45'1 4.6
2018-Apr-16 02:22N 39°13' W 028°45'8 5.1
2018-Apr-16 00:43N 39°17' W 028°35'1 5.5
2018-Apr-16 00:27N 39°18' W 028°34'6 5.4
2018-Apr-15 23:18N 39°21' W 028°27'3 5.3
2018-Apr-15 22:49N 39°22' W 028°24'3 5.4
2018-Apr-15 22:11N 39°24' W 028°20'6 5.6
2018-Apr-15 21:09N 39°26' W 028°13'1 6.3
2018-Apr-15 21:00N 39°27' W 028°12'4 6.4
2018-Apr-15 20:18N 39°29' W 028°07'2 6.8
2018-Apr-15 20:00N 39°29' W 028°04'3 6.8
2018-Apr-15 19:30N 39°31' W 028°00'4 7.0
2018-Apr-15 18:58N 39°32' W 027°56'3 6.9
2018-Apr-15 18:30N 39°34' W 027°52'  
2018-Apr-10 18:57N 49°57' W 003°46'512.3
2018-Apr-10 18:30N 49°59' W 003°38'612.1
2018-Apr-10 18:00N 50°03' W 003°30'611.9
2018-Apr-10 17:30N 50°05' W 003°22'611.8
2018-Apr-10 17:00N 50°07' W 003°13'611.6
2018-Apr-10 16:30N 50°10' W 003°06'611.5
2018-Apr-10 16:00N 50°13' W 002°57'611.4
2018-Apr-10 15:30N 50°15' W 002°49'611.4
2018-Apr-10 15:00N 50°17' W 002°41'611.5
2018-Apr-10 14:29N 50°20' W 002°33'611.8
2018-Apr-10 14:00N 50°24' W 002°26'1010.0
2018-Apr-10 13:03N 50°32' W 002°20'111.4
2018-Apr-10 12:58N 50°33' W 002°21'3 7.5
2018-Apr-10 12:30N 50°35' W 002°25'1 0.2
2018-Apr-10 08:29N 50°35' W 002°26'2 3.9
2018-Apr-10 08:00N 50°36' W 002°24'0 0.1
2018-Apr-10 06:25N 50°36' W 002°25'2 1.5
2018-Apr-10 05:20N 50°35' W 002°23'1 3.7
2018-Apr-10 04:56N 50°34' W 002°21'16 3.6
2018-Apr-10 00:29N 50°26' W 001°59'611.8
2018-Apr-10 00:00N 50°23' W 001°52'812.2
2018-Apr-09 23:20N 50°20' W 001°40'812.1
2018-Apr-09 22:41N 50°18' W 001°28'312.7
2018-Apr-09 22:29N 50°18' W 001°24'813.1
2018-Apr-09 21:53N 50°18' W 001°12'3313.5
2018-Apr-09 19:28N 50°25' W 000°22'613.0
2018-Apr-09 19:00N 50°27' W 000°13'612.8
2018-Apr-09 18:30N 50°29' W 000°03'612.7
2018-Apr-09 18:00N 50°31' E 000°06'612.5
2018-Apr-09 17:30N 50°32' E 000°16'612.3
2018-Apr-09 17:00N 50°34' E 000°25'612.1
2018-Apr-09 16:30N 50°36' E 000°34'612.0
2018-Apr-09 16:00N 50°40' E 000°42'612.2
2018-Apr-09 15:30N 50°44' E 000°49'612.4
2018-Apr-09 15:00N 50°48' E 000°56'612.7
2018-Apr-09 14:30N 50°52' E 001°04'813.1
2018-Apr-09 13:55N 50°57' E 001°13'613.7
2018-Apr-09 13:30N 51°01' E 001°20'713.9
2018-Apr-09 13:00N 51°05' E 001°29'714.3
2018-Apr-09 12:30N 51°09' E 001°38'713.8
2018-Apr-09 12:00N 51°14' E 001°46'713.3
2018-Apr-09 11:30N 51°20' E 001°51'612.9
2018-Apr-09 11:00N 51°25' E 001°56'612.4
2018-Apr-09 10:30N 51°31' E 002°01'612.1
2018-Apr-09 09:59N 51°35' E 002°08'612.0
2018-Apr-09 09:29N 51°40' E 002°14'711.8
2018-Apr-09 08:56N 51°45' E 002°21'511.6
2018-Apr-09 08:30N 51°48' E 002°27'13612.2
2018-Apr-08 21:22N 53°38' E 004°40'512.2
2018-Apr-08 20:59N 53°42' E 004°43'612.5
2018-Apr-08 20:30N 53°48' E 004°47'712.7
2018-Apr-08 19:56N 53°54' E 004°51'11412.6
2018-Apr-08 10:52N 55°33' E 006°31'512.2
2018-Apr-08 10:26N 55°37' E 006°35'14811.8
2018-Apr-07 21:52N 57°40' E 009°08'412.1
2018-Apr-07 21:30N 57°43' E 009°13'712.1
2018-Apr-07 20:54N 57°48' E 009°23'2012.5
2018-Apr-07 19:19N 57°49' E 010°01'512.9
2018-Apr-07 18:56N 57°49' E 010°10'613.0
2018-Apr-07 18:30N 57°49' E 010°20'612.8
2018-Apr-07 18:00N 57°49' E 010°32'612.4
2018-Apr-07 17:30N 57°49' E 010°44'612.0
2018-Apr-07 17:00N 57°45' E 010°53'612.3
2018-Apr-07 16:30N 57°41' E 011°01'612.3
2018-Apr-07 16:00N 57°37' E 011°10'612.5
2018-Apr-07 15:30N 57°32' E 011°18'612.2
2018-Apr-07 15:00N 57°28' E 011°26'612.3
2018-Apr-07 14:30N 57°22' E 011°30'612.2
2018-Apr-07 14:00N 57°17' E 011°34'612.2
2018-Apr-07 13:30N 57°11' E 011°38'612.3
2018-Apr-07 13:00N 57°05' E 011°42'612.2
2018-Apr-07 12:30N 56°59' E 011°46'1712.1
2018-Apr-07 11:07N 56°43' E 011°53'112.6
2018-Apr-07 11:00N 56°42' E 011°52'1212.7
2018-Apr-07 10:06N 56°32' E 011°41'312.2
2018-Apr-07 09:50N 56°29' E 011°37'512.5
2018-Apr-07 09:27N 56°25' E 011°33'712.2
2018-Apr-07 08:51N 56°19' E 011°26'612.6
2018-Apr-07 08:22N 56°14' E 011°21'4611.5
2018-Apr-07 04:24N 55°31' E 010°53'411.4
2018-Apr-07 04:00N 55°27' E 010°57'611.2
2018-Apr-07 03:26N 55°21' E 011°02'510.9
2018-Apr-07 03:00N 55°17' E 011°04'610.9
2018-Apr-07 02:28N 55°11' E 011°04'511.6
2018-Apr-07 02:00N 55°05' E 011°03'612.3
2018-Apr-07 01:31N 54°59' E 011°01'612.0
2018-Apr-07 01:00N 54°55' E 010°54'612.6
2018-Apr-07 00:30N 54°49' E 010°52'611.8
2018-Apr-07 00:00N 54°43' E 010°54'612.2
2018-Apr-06 23:30N 54°39' E 011°02'612.5
2018-Apr-06 23:00N 54°36' E 011°11'611.5
2018-Apr-06 22:30N 54°33' E 011°20'612.1
2018-Apr-06 22:00N 54°31' E 011°29'612.1
2018-Apr-06 21:30N 54°28' E 011°39'611.8
2018-Apr-06 21:00N 54°26' E 011°48'612.0
2018-Apr-06 20:30N 54°26' E 011°59'611.6
2018-Apr-06 20:00N 54°27' E 012°08'  
Track history (hours):
 
Tides and Currents Weather Stations Pressure Air Temp Water Temp Dewpoint Dewpoint Depression Visibility Wind Speed Wind Dir Waves Ship Positions

Annelisa

Last reported at 2018-Apr-16 19:32 UTC. Time now 2018-Jun-20 07:20 UTC.
Position N 38°25' W 030°34'.
Warning: this ship's position is months out of date.

Length 138 m; draft 8.7 m.

Type: Other ship. MMSI: 548903000.

Date/timePositionNaut miles runAvg speedWind from/ knotsBaromVisibWave heightAir tempDewpointWater temp
2018-Apr-16 19:32N 38°25' W 030°34'2 7.2
2018-Apr-16 19:18N 38°26' W 030°32'2 7.1
2018-Apr-16 19:00N 38°27' W 030°30'3 6.8
2018-Apr-16 18:29N 38°28' W 030°26'5 6.6
2018-Apr-16 17:47N 38°31' W 030°21'3 6.7
2018-Apr-16 17:20N 38°32' W 030°17'2 6.9
2018-Apr-16 17:00N 38°33' W 030°15'5 6.0
2018-Apr-16 16:12N 38°36' W 030°09'1 5.5
2018-Apr-16 15:57N 38°36' W 030°08'2 5.0
2018-Apr-16 15:30N 38°37' W 030°05'3 5.5
2018-Apr-16 14:59N 38°39' W 030°02'3 6.0
2018-Apr-16 14:28N 38°40' W 029°59'3 5.6
2018-Apr-16 14:00N 38°42' W 029°56'3 5.6
2018-Apr-16 13:27N 38°43' W 029°52'2 5.4
2018-Apr-16 12:59N 38°44' W 029°50'3 5.4
2018-Apr-16 12:29N 38°46' W 029°47'2 5.1
2018-Apr-16 12:01N 38°47' W 029°44'3 5.3
2018-Apr-16 11:27N 38°49' W 029°41'2 5.3
2018-Apr-16 11:00N 38°50' W 029°38'4 5.3
2018-Apr-16 10:12N 38°52' W 029°34'7 5.8
2018-Apr-16 08:59N 38°56' W 029°26'7 6.3
2018-Apr-16 07:52N 38°60' W 029°18'3 6.5
2018-Apr-16 07:23N 39°01' W 029°15'5 5.9
2018-Apr-16 06:33N 39°03' W 029°09'1 5.9
2018-Apr-16 06:27N 39°04' W 029°08'6 5.3
2018-Apr-16 05:19N 39°06' W 029°01'2 5.2
2018-Apr-16 04:56N 39°07' W 028°59'2 4.9
2018-Apr-16 04:28N 39°08' W 028°57'4 5.0
2018-Apr-16 03:41N 39°10' W 028°52'6 5.0
2018-Apr-16 02:31N 39°13' W 028°45'1 4.6
2018-Apr-16 02:22N 39°13' W 028°45'8 5.1
2018-Apr-16 00:43N 39°17' W 028°35'1 5.5
2018-Apr-16 00:27N 39°18' W 028°34'6 5.4
2018-Apr-15 23:18N 39°21' W 028°27'3 5.3
2018-Apr-15 22:49N 39°22' W 028°24'3 5.4
2018-Apr-15 22:11N 39°24' W 028°20'6 5.6
2018-Apr-15 21:09N 39°26' W 028°13'1 6.3
2018-Apr-15 21:00N 39°27' W 028°12'4 6.4
2018-Apr-15 20:18N 39°29' W 028°07'2 6.8
2018-Apr-15 20:00N 39°29' W 028°04'3 6.8
2018-Apr-15 19:30N 39°31' W 028°00'4 7.0
2018-Apr-15 18:58N 39°32' W 027°56'3 6.9
2018-Apr-15 18:30N 39°34' W 027°52'  
2018-Apr-10 18:57N 49°57' W 003°46'512.3
2018-Apr-10 18:30N 49°59' W 003°38'612.1
2018-Apr-10 18:00N 50°03' W 003°30'611.9
2018-Apr-10 17:30N 50°05' W 003°22'611.8
2018-Apr-10 17:00N 50°07' W 003°13'611.6
2018-Apr-10 16:30N 50°10' W 003°06'611.5
2018-Apr-10 16:00N 50°13' W 002°57'611.4
2018-Apr-10 15:30N 50°15' W 002°49'611.4
2018-Apr-10 15:00N 50°17' W 002°41'611.5
2018-Apr-10 14:29N 50°20' W 002°33'611.8
2018-Apr-10 14:00N 50°24' W 002°26'1010.0
2018-Apr-10 13:03N 50°32' W 002°20'111.4
2018-Apr-10 12:58N 50°33' W 002°21'3 7.5
2018-Apr-10 12:30N 50°35' W 002°25'1 0.2
2018-Apr-10 08:29N 50°35' W 002°26'2 3.9
2018-Apr-10 08:00N 50°36' W 002°24'0 0.1
2018-Apr-10 06:25N 50°36' W 002°25'2 1.5
2018-Apr-10 05:20N 50°35' W 002°23'1 3.7
2018-Apr-10 04:56N 50°34' W 002°21'16 3.6
2018-Apr-10 00:29N 50°26' W 001°59'611.8
2018-Apr-10 00:00N 50°23' W 001°52'812.2
2018-Apr-09 23:20N 50°20' W 001°40'812.1
2018-Apr-09 22:41N 50°18' W 001°28'312.7
2018-Apr-09 22:29N 50°18' W 001°24'813.1
2018-Apr-09 21:53N 50°18' W 001°12'3313.5
2018-Apr-09 19:28N 50°25' W 000°22'613.0
2018-Apr-09 19:00N 50°27' W 000°13'612.8
2018-Apr-09 18:30N 50°29' W 000°03'612.7
2018-Apr-09 18:00N 50°31' E 000°06'612.5
2018-Apr-09 17:30N 50°32' E 000°16'612.3
2018-Apr-09 17:00N 50°34' E 000°25'612.1
2018-Apr-09 16:30N 50°36' E 000°34'612.0
2018-Apr-09 16:00N 50°40' E 000°42'612.2
2018-Apr-09 15:30N 50°44' E 000°49'612.4
2018-Apr-09 15:00N 50°48' E 000°56'612.7
2018-Apr-09 14:30N 50°52' E 001°04'813.1
2018-Apr-09 13:55N 50°57' E 001°13'613.7
2018-Apr-09 13:30N 51°01' E 001°20'713.9
2018-Apr-09 13:00N 51°05' E 001°29'714.3
2018-Apr-09 12:30N 51°09' E 001°38'713.8
2018-Apr-09 12:00N 51°14' E 001°46'713.3
2018-Apr-09 11:30N 51°20' E 001°51'612.9
2018-Apr-09 11:00N 51°25' E 001°56'612.4
2018-Apr-09 10:30N 51°31' E 002°01'612.1
2018-Apr-09 09:59N 51°35' E 002°08'612.0
2018-Apr-09 09:29N 51°40' E 002°14'711.8
2018-Apr-09 08:56N 51°45' E 002°21'511.6
2018-Apr-09 08:30N 51°48' E 002°27'13612.2
2018-Apr-08 21:22N 53°38' E 004°40'512.2
2018-Apr-08 20:59N 53°42' E 004°43'612.5
2018-Apr-08 20:30N 53°48' E 004°47'712.7
2018-Apr-08 19:56N 53°54' E 004°51'11412.6
2018-Apr-08 10:52N 55°33' E 006°31'512.2
2018-Apr-08 10:26N 55°37' E 006°35'14811.8
2018-Apr-07 21:52N 57°40' E 009°08'412.1
2018-Apr-07 21:30N 57°43' E 009°13'712.1
2018-Apr-07 20:54N 57°48' E 009°23'2012.5
2018-Apr-07 19:19N 57°49' E 010°01'512.9
2018-Apr-07 18:56N 57°49' E 010°10'613.0
2018-Apr-07 18:30N 57°49' E 010°20'612.8
2018-Apr-07 18:00N 57°49' E 010°32'612.4
2018-Apr-07 17:30N 57°49' E 010°44'612.0
2018-Apr-07 17:00N 57°45' E 010°53'612.3
2018-Apr-07 16:30N 57°41' E 011°01'612.3
2018-Apr-07 16:00N 57°37' E 011°10'612.5
2018-Apr-07 15:30N 57°32' E 011°18'612.2
2018-Apr-07 15:00N 57°28' E 011°26'612.3
2018-Apr-07 14:30N 57°22' E 011°30'612.2
2018-Apr-07 14:00N 57°17' E 011°34'612.2
2018-Apr-07 13:30N 57°11' E 011°38'612.3
2018-Apr-07 13:00N 57°05' E 011°42'612.2
2018-Apr-07 12:30N 56°59' E 011°46'1712.1
2018-Apr-07 11:07N 56°43' E 011°53'112.6
2018-Apr-07 11:00N 56°42' E 011°52'1212.7
2018-Apr-07 10:06N 56°32' E 011°41'312.2
2018-Apr-07 09:50N 56°29' E 011°37'512.5
2018-Apr-07 09:27N 56°25' E 011°33'712.2
2018-Apr-07 08:51N 56°19' E 011°26'612.6
2018-Apr-07 08:22N 56°14' E 011°21'4611.5
2018-Apr-07 04:24N 55°31' E 010°53'411.4
2018-Apr-07 04:00N 55°27' E 010°57'611.2
2018-Apr-07 03:26N 55°21' E 011°02'510.9
2018-Apr-07 03:00N 55°17' E 011°04'610.9
2018-Apr-07 02:28N 55°11' E 011°04'511.6
2018-Apr-07 02:00N 55°05' E 011°03'612.3
2018-Apr-07 01:31N 54°59' E 011°01'612.0
2018-Apr-07 01:00N 54°55' E 010°54'612.6
2018-Apr-07 00:30N 54°49' E 010°52'611.8
2018-Apr-07 00:00N 54°43' E 010°54'612.2
2018-Apr-06 23:30N 54°39' E 011°02'612.5
2018-Apr-06 23:00N 54°36' E 011°11'611.5
2018-Apr-06 22:30N 54°33' E 011°20'612.1
2018-Apr-06 22:00N 54°31' E 011°29'612.1
2018-Apr-06 21:30N 54°28' E 011°39'611.8
2018-Apr-06 21:00N 54°26' E 011°48'612.0
2018-Apr-06 20:30N 54°26' E 011°59'611.6
2018-Apr-06 20:00N 54°27' E 012°08'  

Dump ship's entire track history